Pacific Titan — WCZ6844 — position and weather

sailwx.info

Track history (hours):
 
Tides and Currents Weather Stations Pressure Air Temp Water Temp Dewpoint Dewpoint Depression Visibility Wind Speed Wind Dir Waves Ship Positions

Pacific Titan

Owner: WESTERN TOWBOAT CO, SEATTLE, WA. More information available from US FCC via Universal Licensing System and Coast Guard Vessel Documentation Center.

Last reported at 2015-Jul-26 13:29 UTC. Time now 2015-Jul-29 09:31 UTC.
Position N 51°17' W 127°53'.

Type: Tow > 200 m length. MMSI: 338855000.

Date/timePositionNaut miles runAvg speedWind from/ knotsBaromVisibWave heightAir tempDewpointWater temp
2015-Jul-26 13:29N 51°17' W 127°53'9 9.7
2015-Jul-26 12:33N 51°09' W 127°50'10 9.4
2015-Jul-26 11:32N 51°02' W 127°38'1010.0
2015-Jul-26 10:33N 50°56' W 127°27'1110.5
2015-Jul-26 09:33N 50°50' W 127°13'1410.2
2015-Jul-26 08:09N 50°42' W 126°54'62 9.3
2015-Jul-26 01:31N 50°18' W 125°25'1010.9
2015-Jul-26 00:33N 50°08' W 125°21'10 9.7
2015-Jul-25 23:33N 49°60' W 125°12'8 8.4
2015-Jul-25 22:33N 49°54' W 125°03'9 9.0
2015-Jul-25 21:33N 49°48' W 124°52'1010.2
2015-Jul-25 20:33N 49°42' W 124°40'10 9.8
2015-Jul-25 19:33N 49°36' W 124°28'8 8.4
2015-Jul-25 18:33N 49°32' W 124°16'9 9.0
2015-Jul-25 17:33N 49°27' W 124°05'1010.1
2015-Jul-25 16:33N 49°21' W 123°52'10 9.7
2015-Jul-25 15:33N 49°16' W 123°40'10 9.6
2015-Jul-25 14:33N 49°09' W 123°29'9 9.5
2015-Jul-25 13:33N 49°03' W 123°18'9 9.1
2015-Jul-25 12:33N 48°57' W 123°08'9 9.0
2015-Jul-25 11:33N 48°51' W 122°58'9 9.0
2015-Jul-25 10:33N 48°46' W 122°46'8 7.9
2015-Jul-25 09:33N 48°38' W 122°44'2 8.4
2015-Jul-25 09:20N 48°36' W 122°45'7 8.3
2015-Jul-25 08:33N 48°30' W 122°44'9 9.0
2015-Jul-25 07:32N 48°21' W 122°45'16 8.1
2015-Jul-25 05:31N 48°05' W 122°38'8 8.6
2015-Jul-25 04:33N 47°58' W 122°33'1 8.5
2015-Jul-25 04:25N 47°57' W 122°32'8 8.9
2015-Jul-25 03:33N 47°50' W 122°27'1 9.6
2015-Jul-25 03:30N 47°49' W 122°27'9 9.9
2015-Jul-25 02:33N 47°40' W 122°27'1 9.9
2015-Jul-25 02:30N 47°39' W 122°27'6 6.7
2015-Jul-25 01:33N 47°34' W 122°21'0 4.9
2015-Jul-25 01:30N 47°34' W 122°21'1 1.2
2015-Jul-25 00:33N 47°33' W 122°21'0 0.0
2015-Jul-25 00:30N 47°33' W 122°21'0 0.0
2015-Jul-24 23:33N 47°33' W 122°21'0 0.1
2015-Jul-24 23:30N 47°33' W 122°21'2 1.6
2015-Jul-24 22:33N 47°35' W 122°22'0 8.0
2015-Jul-24 22:30N 47°35' W 122°22'5 5.5
2015-Jul-24 21:33N 47°40' W 122°24'0 0.8
2015-Jul-24 21:30N 47°40' W 122°24'0 0.2
2015-Jul-24 20:33N 47°40' W 122°24'0 0.0
2015-Jul-24 20:30N 47°40' W 122°24'1 1.4
2015-Jul-24 19:33N 47°39' W 122°22'0 0.0
2015-Jul-24 19:29N 47°39' W 122°22'0 0.0
2015-Jul-24 18:32N 47°39' W 122°22'0 0.0
2015-Jul-24 18:29N 47°39' W 122°22'0 0.0
2015-Jul-24 17:33N 47°39' W 122°22'0 0.0
2015-Jul-24 17:29N 47°39' W 122°22'0 0.0
2015-Jul-24 16:33N 47°39' W 122°22'0 0.0
2015-Jul-24 16:29N 47°39' W 122°22'0 0.0
2015-Jul-24 15:31N 47°39' W 122°22'0 0.0
2015-Jul-24 15:29N 47°39' W 122°22'0 0.0
2015-Jul-24 14:33N 47°39' W 122°22'0 0.0
2015-Jul-24 14:29N 47°39' W 122°22'0 0.0
2015-Jul-24 13:33N 47°39' W 122°22'0 0.0
2015-Jul-24 13:29N 47°39' W 122°22'0 0.0
2015-Jul-24 12:34N 47°39' W 122°22'0 0.0
2015-Jul-24 12:33N 47°39' W 122°22'0 0.0
2015-Jul-24 11:34N 47°39' W 122°22'0 0.0
2015-Jul-24 11:33N 47°39' W 122°22'0 0.0
2015-Jul-24 10:34N 47°39' W 122°22'0 0.0
2015-Jul-24 10:33N 47°39' W 122°22'0 0.0
2015-Jul-24 09:33N 47°39' W 122°22'0 0.0
2015-Jul-24 09:33N 47°39' W 122°22'0 0.0
2015-Jul-24 08:33N 47°39' W 122°22'0 0.0
2015-Jul-24 08:33N 47°39' W 122°22'0 0.0
2015-Jul-24 07:33N 47°39' W 122°22'0 0.0
2015-Jul-24 07:33N 47°39' W 122°22'0 0.0
2015-Jul-24 06:33N 47°39' W 122°22'0 0.0
2015-Jul-24 06:33N 47°39' W 122°22'0 0.0
2015-Jul-24 06:03N 47°39' W 122°22'0 0.0
2015-Jul-24 05:33N 47°39' W 122°22'0 0.0
2015-Jul-24 04:33N 47°39' W 122°22'0 0.0
2015-Jul-24 04:33N 47°39' W 122°22'0 0.0
2015-Jul-24 03:33N 47°39' W 122°22'0 0.0
2015-Jul-24 03:33N 47°39' W 122°22'0 0.0
2015-Jul-24 02:33N 47°39' W 122°22'0 0.0
2015-Jul-24 02:33N 47°39' W 122°22'0 0.0
2015-Jul-24 01:33N 47°39' W 122°22'0 0.0
2015-Jul-24 01:33N 47°39' W 122°22'0 0.0
2015-Jul-24 00:33N 47°39' W 122°22'0 0.0
2015-Jul-24 00:33N 47°39' W 122°22'0 0.0
2015-Jul-23 23:33N 47°39' W 122°22'0 0.0
2015-Jul-23 23:32N 47°39' W 122°22'0 0.0
2015-Jul-23 22:33N 47°39' W 122°22'0 0.0
2015-Jul-23 22:32N 47°39' W 122°22'0 0.0
2015-Jul-23 21:33N 47°39' W 122°22'0 0.0
2015-Jul-23 21:30N 47°39' W 122°22'0 0.0
2015-Jul-23 20:33N 47°39' W 122°22'0 0.0
2015-Jul-23 20:29N 47°39' W 122°22'0 0.0
2015-Jul-23 19:33N 47°39' W 122°22'0 0.3
2015-Jul-23 19:23N 47°39' W 122°22'0 0.0
2015-Jul-23 18:33N 47°39' W 122°22'0 0.0
2015-Jul-23 18:33N 47°39' W 122°22'0 0.0
2015-Jul-23 17:33N 47°39' W 122°22'0 0.0
2015-Jul-23 17:33N 47°39' W 122°22'0 0.0
2015-Jul-23 16:33N 47°39' W 122°22'0 0.0
2015-Jul-23 16:32N 47°39' W 122°22'0 0.0
2015-Jul-23 15:33N 47°39' W 122°22'0 0.0
2015-Jul-23 15:31N 47°39' W 122°22'0 0.0
2015-Jul-23 14:33N 47°39' W 122°22'0 0.0
2015-Jul-23 14:31N 47°39' W 122°22'0 0.0
2015-Jul-23 13:33N 47°39' W 122°22'0 0.0
2015-Jul-23 13:31N 47°39' W 122°22'0 0.0
2015-Jul-23 12:33N 47°39' W 122°22'0 0.0
2015-Jul-23 11:53N 47°39' W 122°22'0 0.0
2015-Jul-23 11:34N 47°39' W 122°22'0 0.0
2015-Jul-23 11:33N 47°39' W 122°22'0 0.0
2015-Jul-23 10:33N 47°39' W 122°22'0 0.0
2015-Jul-23 10:33N 47°39' W 122°22'0 0.0
2015-Jul-23 09:33N 47°39' W 122°22'0 0.0
2015-Jul-23 09:33N 47°39' W 122°22'0 0.0
2015-Jul-23 08:33N 47°39' W 122°22'0 0.0
2015-Jul-23 08:33N 47°39' W 122°22'0 0.0
2015-Jul-23 07:33N 47°39' W 122°22'0 0.0
2015-Jul-23 07:32N 47°39' W 122°22'0 0.0
2015-Jul-23 06:33N 47°39' W 122°22'0 0.0
2015-Jul-23 06:32N 47°39' W 122°22'0 0.0
2015-Jul-23 06:07N 47°39' W 122°22'0 0.0
2015-Jul-23 05:33N 47°39' W 122°22'0 0.0
2015-Jul-23 04:33N 47°39' W 122°22'0 0.0
2015-Jul-23 04:31N 47°39' W 122°22'0 0.0
2015-Jul-23 03:33N 47°39' W 122°22'0 0.0
2015-Jul-23 03:31N 47°39' W 122°22'0 0.0
2015-Jul-23 02:33N 47°39' W 122°22'0 0.0
2015-Jul-23 02:31N 47°39' W 122°22'0 0.0
2015-Jul-23 01:33N 47°39' W 122°22'0 0.0
2015-Jul-23 01:31N 47°39' W 122°22'0 0.0
2015-Jul-23 00:33N 47°39' W 122°22'0 0.0
2015-Jul-23 00:31N 47°39' W 122°22'0 0.0
2015-Jul-22 23:33N 47°39' W 122°22'0 0.0
2015-Jul-22 23:30N 47°39' W 122°22'0 0.0
2015-Jul-22 22:33N 47°39' W 122°22'0 0.0
2015-Jul-22 22:30N 47°39' W 122°22'0 0.0
2015-Jul-22 21:33N 47°39' W 122°22'0 0.0
2015-Jul-22 21:29N 47°39' W 122°22'0 0.0
2015-Jul-22 20:33N 47°39' W 122°22'0 0.0
2015-Jul-22 20:29N 47°39' W 122°22'0 0.0
2015-Jul-22 19:33N 47°39' W 122°22'0 0.0
2015-Jul-22 19:33N 47°39' W 122°22'0 0.0
2015-Jul-22 18:33N 47°39' W 122°22'0 0.0
2015-Jul-22 18:33N 47°39' W 122°22'0 0.0
2015-Jul-22 17:33N 47°39' W 122°22'0 0.0
2015-Jul-22 17:33N 47°39' W 122°22'0 0.0
2015-Jul-22 16:33N 47°39' W 122°22'0 0.0
2015-Jul-22 16:32N 47°39' W 122°22'0 0.0
2015-Jul-22 15:33N 47°39' W 122°22'0 0.0
2015-Jul-22 15:32N 47°39' W 122°22'0 0.0
2015-Jul-22 14:33N 47°39' W 122°22'0 0.0
2015-Jul-22 14:31N 47°39' W 122°22'0 0.0
2015-Jul-22 13:33N 47°39' W 122°22'0 0.2
2015-Jul-22 13:31N 47°39' W 122°22'0 0.0
2015-Jul-22 12:33N 47°39' W 122°22'0 0.0
2015-Jul-22 12:31N 47°39' W 122°22'0 0.0
2015-Jul-22 11:33N 47°39' W 122°22'0 0.2
2015-Jul-22 11:31N 47°39' W 122°22'0 0.0
2015-Jul-22 10:33N 47°39' W 122°22'0 0.1
2015-Jul-22 10:31N 47°39' W 122°22'0 0.0
2015-Jul-22 09:33N 47°39' W 122°22'0 0.1
2015-Jul-22 09:30N 47°39' W 122°22'0 0.0
2015-Jul-22 08:33N 47°39' W 122°22'0 0.0
2015-Jul-22 08:25N 47°39' W 122°22'0 0.0
2015-Jul-22 07:33N 47°39' W 122°22'0 0.0
2015-Jul-22 07:30N 47°39' W 122°22'0 0.0
2015-Jul-22 06:33N 47°39' W 122°22'0 0.0
2015-Jul-22 06:29N 47°39' W 122°22'0 0.0
2015-Jul-22 06:10N 47°39' W 122°22'0 0.0
2015-Jul-22 05:33N 47°39' W 122°22'0 0.0
2015-Jul-22 04:33N 47°39' W 122°22'0 0.0
2015-Jul-22 04:29N 47°39' W 122°22'0 0.0
2015-Jul-22 03:33N 47°39' W 122°22'0 0.0
2015-Jul-22 03:29N 47°39' W 122°22'0 0.0
2015-Jul-22 02:33N 47°39' W 122°22'0 0.0
2015-Jul-22 02:29N 47°39' W 122°22'0 0.0
2015-Jul-22 01:34N 47°39' W 122°22'0 0.7
2015-Jul-22 01:33N 47°39' W 122°22'0 0.0
2015-Jul-22 00:33N 47°39' W 122°22'0 0.0
2015-Jul-22 00:33N 47°39' W 122°22'0 0.0
2015-Jul-21 23:33N 47°39' W 122°22'0 0.0
2015-Jul-21 23:33N 47°39' W 122°22'0 0.0
2015-Jul-21 22:31N 47°39' W 122°22'0 0.9
2015-Jul-21 22:28N 47°39' W 122°22'0 0.1
2015-Jul-21 21:33N 47°39' W 122°22'0 0.0
2015-Jul-21 21:33N 47°39' W 122°22'0 0.0
2015-Jul-21 20:33N 47°39' W 122°22'0 0.0
2015-Jul-21 20:33N 47°39' W 122°22'1 1.5
2015-Jul-21 19:33N 47°40' W 122°24'0 3.9
2015-Jul-21 19:32N 47°40' W 122°24'4 4.3
2015-Jul-21 18:33N 47°36' W 122°22'0 3.0
2015-Jul-21 18:32N 47°36' W 122°22'8 7.8
2015-Jul-21 17:33N 47°43' W 122°27'0 8.5
2015-Jul-21 17:32N 47°43' W 122°27'9 9.2
2015-Jul-21 16:33N 47°52' W 122°29'0 9.0
2015-Jul-21 16:32N 47°52' W 122°29'9 9.5
2015-Jul-21 15:32N 47°60' W 122°37'410.0
2015-Jul-21 15:11N 48°03' W 122°39'6 9.8
2015-Jul-21 14:33N 48°08' W 122°44'9 9.5
2015-Jul-21 13:33N 48°17' W 122°48'10 9.9
2015-Jul-21 12:33N 48°27' W 122°44'1010.2
2015-Jul-21 11:33N 48°37' W 122°45'9 9.0
2015-Jul-21 10:33N 48°46' W 122°50'10 9.7
2015-Jul-21 09:33N 48°51' W 123°02'1010.3
2015-Jul-21 08:33N 48°58' W 123°14'1110.7
2015-Jul-21 07:33N 49°05' W 123°26'1010.1
2015-Jul-21 06:33N 49°12' W 123°38'1010.3
2015-Jul-21 05:33N 49°18' W 123°50'1010.2
2015-Jul-21 04:33N 49°25' W 124°02'10 9.8
2015-Jul-21 03:33N 49°31' W 124°13'10 9.5
2015-Jul-21 02:33N 49°36' W 124°26'10 9.7
2015-Jul-21 01:33N 49°41' W 124°38'9 9.1
2015-Jul-21 00:32N 49°47' W 124°50'9 9.1
2015-Jul-20 23:33N 49°53' W 124°60'10 9.4
2015-Jul-20 22:29N 49°60' W 125°12'9 9.0
2015-Jul-20 21:33N 50°07' W 125°19'5 5.5
2015-Jul-20 20:33N 50°12' W 125°22'2 2.3
2015-Jul-20 19:33N 50°14' W 125°23'2 1.6
2015-Jul-20 18:06N 50°16' W 125°24'3 5.4
2015-Jul-20 17:32N 50°13' W 125°23'4 3.4
2015-Jul-20 16:24N 50°17' W 125°25'42 9.6
2015-Jul-20 12:04N 50°30' W 126°27'15 9.4
2015-Jul-20 10:30N 50°37' W 126°47'9 9.8
2015-Jul-20 09:34N 50°43' W 126°58'10 9.9
2015-Jul-20 08:34N 50°49' W 127°10'1010.2
2015-Jul-20 07:34N 50°55' W 127°24'9 9.5
2015-Jul-20 06:33N 51°00' W 127°36'10 9.7
2015-Jul-20 05:34N 51°07' W 127°47'10 9.4
2015-Jul-20 04:31N 51°16' W 127°53'1110.1
2015-Jul-20 03:25N 51°27' W 127°52'  
Track history (hours):
 
Tides and Currents Weather Stations Pressure Air Temp Water Temp Dewpoint Dewpoint Depression Visibility Wind Speed Wind Dir Waves Ship Positions

Pacific Titan

Owner: WESTERN TOWBOAT CO, SEATTLE, WA. More information available from US FCC via Universal Licensing System and Coast Guard Vessel Documentation Center.

Last reported at 2015-Jul-26 13:29 UTC. Time now 2015-Jul-29 09:31 UTC.
Position N 51°17' W 127°53'.

Type: Tow > 200 m length. MMSI: 338855000.

Date/timePositionNaut miles runAvg speedWind from/ knotsBaromVisibWave heightAir tempDewpointWater temp
2015-Jul-26 13:29N 51°17' W 127°53'9 9.7
2015-Jul-26 12:33N 51°09' W 127°50'10 9.4
2015-Jul-26 11:32N 51°02' W 127°38'1010.0
2015-Jul-26 10:33N 50°56' W 127°27'1110.5
2015-Jul-26 09:33N 50°50' W 127°13'1410.2
2015-Jul-26 08:09N 50°42' W 126°54'62 9.3
2015-Jul-26 01:31N 50°18' W 125°25'1010.9
2015-Jul-26 00:33N 50°08' W 125°21'10 9.7
2015-Jul-25 23:33N 49°60' W 125°12'8 8.4
2015-Jul-25 22:33N 49°54' W 125°03'9 9.0
2015-Jul-25 21:33N 49°48' W 124°52'1010.2
2015-Jul-25 20:33N 49°42' W 124°40'10 9.8
2015-Jul-25 19:33N 49°36' W 124°28'8 8.4
2015-Jul-25 18:33N 49°32' W 124°16'9 9.0
2015-Jul-25 17:33N 49°27' W 124°05'1010.1
2015-Jul-25 16:33N 49°21' W 123°52'10 9.7
2015-Jul-25 15:33N 49°16' W 123°40'10 9.6
2015-Jul-25 14:33N 49°09' W 123°29'9 9.5
2015-Jul-25 13:33N 49°03' W 123°18'9 9.1
2015-Jul-25 12:33N 48°57' W 123°08'9 9.0
2015-Jul-25 11:33N 48°51' W 122°58'9 9.0
2015-Jul-25 10:33N 48°46' W 122°46'8 7.9
2015-Jul-25 09:33N 48°38' W 122°44'2 8.4
2015-Jul-25 09:20N 48°36' W 122°45'7 8.3
2015-Jul-25 08:33N 48°30' W 122°44'9 9.0
2015-Jul-25 07:32N 48°21' W 122°45'16 8.1
2015-Jul-25 05:31N 48°05' W 122°38'8 8.6
2015-Jul-25 04:33N 47°58' W 122°33'1 8.5
2015-Jul-25 04:25N 47°57' W 122°32'8 8.9
2015-Jul-25 03:33N 47°50' W 122°27'1 9.6
2015-Jul-25 03:30N 47°49' W 122°27'9 9.9
2015-Jul-25 02:33N 47°40' W 122°27'1 9.9
2015-Jul-25 02:30N 47°39' W 122°27'6 6.7
2015-Jul-25 01:33N 47°34' W 122°21'0 4.9
2015-Jul-25 01:30N 47°34' W 122°21'1 1.2
2015-Jul-25 00:33N 47°33' W 122°21'0 0.0
2015-Jul-25 00:30N 47°33' W 122°21'0 0.0
2015-Jul-24 23:33N 47°33' W 122°21'0 0.1
2015-Jul-24 23:30N 47°33' W 122°21'2 1.6
2015-Jul-24 22:33N 47°35' W 122°22'0 8.0
2015-Jul-24 22:30N 47°35' W 122°22'5 5.5
2015-Jul-24 21:33N 47°40' W 122°24'0 0.8
2015-Jul-24 21:30N 47°40' W 122°24'0 0.2
2015-Jul-24 20:33N 47°40' W 122°24'0 0.0
2015-Jul-24 20:30N 47°40' W 122°24'1 1.4
2015-Jul-24 19:33N 47°39' W 122°22'0 0.0
2015-Jul-24 19:29N 47°39' W 122°22'0 0.0
2015-Jul-24 18:32N 47°39' W 122°22'0 0.0
2015-Jul-24 18:29N 47°39' W 122°22'0 0.0
2015-Jul-24 17:33N 47°39' W 122°22'0 0.0
2015-Jul-24 17:29N 47°39' W 122°22'0 0.0
2015-Jul-24 16:33N 47°39' W 122°22'0 0.0
2015-Jul-24 16:29N 47°39' W 122°22'0 0.0
2015-Jul-24 15:31N 47°39' W 122°22'0 0.0
2015-Jul-24 15:29N 47°39' W 122°22'0 0.0
2015-Jul-24 14:33N 47°39' W 122°22'0 0.0
2015-Jul-24 14:29N 47°39' W 122°22'0 0.0
2015-Jul-24 13:33N 47°39' W 122°22'0 0.0
2015-Jul-24 13:29N 47°39' W 122°22'0 0.0
2015-Jul-24 12:34N 47°39' W 122°22'0 0.0
2015-Jul-24 12:33N 47°39' W 122°22'0 0.0
2015-Jul-24 11:34N 47°39' W 122°22'0 0.0
2015-Jul-24 11:33N 47°39' W 122°22'0 0.0
2015-Jul-24 10:34N 47°39' W 122°22'0 0.0
2015-Jul-24 10:33N 47°39' W 122°22'0 0.0
2015-Jul-24 09:33N 47°39' W 122°22'0 0.0
2015-Jul-24 09:33N 47°39' W 122°22'0 0.0
2015-Jul-24 08:33N 47°39' W 122°22'0 0.0
2015-Jul-24 08:33N 47°39' W 122°22'0 0.0
2015-Jul-24 07:33N 47°39' W 122°22'0 0.0
2015-Jul-24 07:33N 47°39' W 122°22'0 0.0
2015-Jul-24 06:33N 47°39' W 122°22'0 0.0
2015-Jul-24 06:33N 47°39' W 122°22'0 0.0
2015-Jul-24 06:03N 47°39' W 122°22'0 0.0
2015-Jul-24 05:33N 47°39' W 122°22'0 0.0
2015-Jul-24 04:33N 47°39' W 122°22'0 0.0
2015-Jul-24 04:33N 47°39' W 122°22'0 0.0
2015-Jul-24 03:33N 47°39' W 122°22'0 0.0
2015-Jul-24 03:33N 47°39' W 122°22'0 0.0
2015-Jul-24 02:33N 47°39' W 122°22'0 0.0
2015-Jul-24 02:33N 47°39' W 122°22'0 0.0
2015-Jul-24 01:33N 47°39' W 122°22'0 0.0
2015-Jul-24 01:33N 47°39' W 122°22'0 0.0
2015-Jul-24 00:33N 47°39' W 122°22'0 0.0
2015-Jul-24 00:33N 47°39' W 122°22'0 0.0
2015-Jul-23 23:33N 47°39' W 122°22'0 0.0
2015-Jul-23 23:32N 47°39' W 122°22'0 0.0
2015-Jul-23 22:33N 47°39' W 122°22'0 0.0
2015-Jul-23 22:32N 47°39' W 122°22'0 0.0
2015-Jul-23 21:33N 47°39' W 122°22'0 0.0
2015-Jul-23 21:30N 47°39' W 122°22'0 0.0
2015-Jul-23 20:33N 47°39' W 122°22'0 0.0
2015-Jul-23 20:29N 47°39' W 122°22'0 0.0
2015-Jul-23 19:33N 47°39' W 122°22'0 0.3
2015-Jul-23 19:23N 47°39' W 122°22'0 0.0
2015-Jul-23 18:33N 47°39' W 122°22'0 0.0
2015-Jul-23 18:33N 47°39' W 122°22'0 0.0
2015-Jul-23 17:33N 47°39' W 122°22'0 0.0
2015-Jul-23 17:33N 47°39' W 122°22'0 0.0
2015-Jul-23 16:33N 47°39' W 122°22'0 0.0
2015-Jul-23 16:32N 47°39' W 122°22'0 0.0
2015-Jul-23 15:33N 47°39' W 122°22'0 0.0
2015-Jul-23 15:31N 47°39' W 122°22'0 0.0
2015-Jul-23 14:33N 47°39' W 122°22'0 0.0
2015-Jul-23 14:31N 47°39' W 122°22'0 0.0
2015-Jul-23 13:33N 47°39' W 122°22'0 0.0
2015-Jul-23 13:31N 47°39' W 122°22'0 0.0
2015-Jul-23 12:33N 47°39' W 122°22'0 0.0
2015-Jul-23 11:53N 47°39' W 122°22'0 0.0
2015-Jul-23 11:34N 47°39' W 122°22'0 0.0
2015-Jul-23 11:33N 47°39' W 122°22'0 0.0
2015-Jul-23 10:33N 47°39' W 122°22'0 0.0
2015-Jul-23 10:33N 47°39' W 122°22'0 0.0
2015-Jul-23 09:33N 47°39' W 122°22'0 0.0
2015-Jul-23 09:33N 47°39' W 122°22'0 0.0
2015-Jul-23 08:33N 47°39' W 122°22'0 0.0
2015-Jul-23 08:33N 47°39' W 122°22'0 0.0
2015-Jul-23 07:33N 47°39' W 122°22'0 0.0
2015-Jul-23 07:32N 47°39' W 122°22'0 0.0
2015-Jul-23 06:33N 47°39' W 122°22'0 0.0
2015-Jul-23 06:32N 47°39' W 122°22'0 0.0
2015-Jul-23 06:07N 47°39' W 122°22'0 0.0
2015-Jul-23 05:33N 47°39' W 122°22'0 0.0
2015-Jul-23 04:33N 47°39' W 122°22'0 0.0
2015-Jul-23 04:31N 47°39' W 122°22'0 0.0
2015-Jul-23 03:33N 47°39' W 122°22'0 0.0
2015-Jul-23 03:31N 47°39' W 122°22'0 0.0
2015-Jul-23 02:33N 47°39' W 122°22'0 0.0
2015-Jul-23 02:31N 47°39' W 122°22'0 0.0
2015-Jul-23 01:33N 47°39' W 122°22'0 0.0
2015-Jul-23 01:31N 47°39' W 122°22'0 0.0
2015-Jul-23 00:33N 47°39' W 122°22'0 0.0
2015-Jul-23 00:31N 47°39' W 122°22'0 0.0
2015-Jul-22 23:33N 47°39' W 122°22'0 0.0
2015-Jul-22 23:30N 47°39' W 122°22'0 0.0
2015-Jul-22 22:33N 47°39' W 122°22'0 0.0
2015-Jul-22 22:30N 47°39' W 122°22'0 0.0
2015-Jul-22 21:33N 47°39' W 122°22'0 0.0
2015-Jul-22 21:29N 47°39' W 122°22'0 0.0
2015-Jul-22 20:33N 47°39' W 122°22'0 0.0
2015-Jul-22 20:29N 47°39' W 122°22'0 0.0
2015-Jul-22 19:33N 47°39' W 122°22'0 0.0
2015-Jul-22 19:33N 47°39' W 122°22'0 0.0
2015-Jul-22 18:33N 47°39' W 122°22'0 0.0
2015-Jul-22 18:33N 47°39' W 122°22'0 0.0
2015-Jul-22 17:33N 47°39' W 122°22'0 0.0
2015-Jul-22 17:33N 47°39' W 122°22'0 0.0
2015-Jul-22 16:33N 47°39' W 122°22'0 0.0
2015-Jul-22 16:32N 47°39' W 122°22'0 0.0
2015-Jul-22 15:33N 47°39' W 122°22'0 0.0
2015-Jul-22 15:32N 47°39' W 122°22'0 0.0
2015-Jul-22 14:33N 47°39' W 122°22'0 0.0
2015-Jul-22 14:31N 47°39' W 122°22'0 0.0
2015-Jul-22 13:33N 47°39' W 122°22'0 0.2
2015-Jul-22 13:31N 47°39' W 122°22'0 0.0
2015-Jul-22 12:33N 47°39' W 122°22'0 0.0
2015-Jul-22 12:31N 47°39' W 122°22'0 0.0
2015-Jul-22 11:33N 47°39' W 122°22'0 0.2
2015-Jul-22 11:31N 47°39' W 122°22'0 0.0
2015-Jul-22 10:33N 47°39' W 122°22'0 0.1
2015-Jul-22 10:31N 47°39' W 122°22'0 0.0
2015-Jul-22 09:33N 47°39' W 122°22'0 0.1
2015-Jul-22 09:30N 47°39' W 122°22'0 0.0
2015-Jul-22 08:33N 47°39' W 122°22'0 0.0
2015-Jul-22 08:25N 47°39' W 122°22'0 0.0
2015-Jul-22 07:33N 47°39' W 122°22'0 0.0
2015-Jul-22 07:30N 47°39' W 122°22'0 0.0
2015-Jul-22 06:33N 47°39' W 122°22'0 0.0
2015-Jul-22 06:29N 47°39' W 122°22'0 0.0
2015-Jul-22 06:10N 47°39' W 122°22'0 0.0
2015-Jul-22 05:33N 47°39' W 122°22'0 0.0
2015-Jul-22 04:33N 47°39' W 122°22'0 0.0
2015-Jul-22 04:29N 47°39' W 122°22'0 0.0
2015-Jul-22 03:33N 47°39' W 122°22'0 0.0
2015-Jul-22 03:29N 47°39' W 122°22'0 0.0
2015-Jul-22 02:33N 47°39' W 122°22'0 0.0
2015-Jul-22 02:29N 47°39' W 122°22'0 0.0
2015-Jul-22 01:34N 47°39' W 122°22'0 0.7
2015-Jul-22 01:33N 47°39' W 122°22'0 0.0
2015-Jul-22 00:33N 47°39' W 122°22'0 0.0
2015-Jul-22 00:33N 47°39' W 122°22'0 0.0
2015-Jul-21 23:33N 47°39' W 122°22'0 0.0
2015-Jul-21 23:33N 47°39' W 122°22'0 0.0
2015-Jul-21 22:31N 47°39' W 122°22'0 0.9
2015-Jul-21 22:28N 47°39' W 122°22'0 0.1
2015-Jul-21 21:33N 47°39' W 122°22'0 0.0
2015-Jul-21 21:33N 47°39' W 122°22'0 0.0
2015-Jul-21 20:33N 47°39' W 122°22'0 0.0
2015-Jul-21 20:33N 47°39' W 122°22'1 1.5
2015-Jul-21 19:33N 47°40' W 122°24'0 3.9
2015-Jul-21 19:32N 47°40' W 122°24'4 4.3
2015-Jul-21 18:33N 47°36' W 122°22'0 3.0
2015-Jul-21 18:32N 47°36' W 122°22'8 7.8
2015-Jul-21 17:33N 47°43' W 122°27'0 8.5
2015-Jul-21 17:32N 47°43' W 122°27'9 9.2
2015-Jul-21 16:33N 47°52' W 122°29'0 9.0
2015-Jul-21 16:32N 47°52' W 122°29'9 9.5
2015-Jul-21 15:32N 47°60' W 122°37'410.0
2015-Jul-21 15:11N 48°03' W 122°39'6 9.8
2015-Jul-21 14:33N 48°08' W 122°44'9 9.5
2015-Jul-21 13:33N 48°17' W 122°48'10 9.9
2015-Jul-21 12:33N 48°27' W 122°44'1010.2
2015-Jul-21 11:33N 48°37' W 122°45'9 9.0
2015-Jul-21 10:33N 48°46' W 122°50'10 9.7
2015-Jul-21 09:33N 48°51' W 123°02'1010.3
2015-Jul-21 08:33N 48°58' W 123°14'1110.7
2015-Jul-21 07:33N 49°05' W 123°26'1010.1
2015-Jul-21 06:33N 49°12' W 123°38'1010.3
2015-Jul-21 05:33N 49°18' W 123°50'1010.2
2015-Jul-21 04:33N 49°25' W 124°02'10 9.8
2015-Jul-21 03:33N 49°31' W 124°13'10 9.5
2015-Jul-21 02:33N 49°36' W 124°26'10 9.7
2015-Jul-21 01:33N 49°41' W 124°38'9 9.1
2015-Jul-21 00:32N 49°47' W 124°50'9 9.1
2015-Jul-20 23:33N 49°53' W 124°60'10 9.4
2015-Jul-20 22:29N 49°60' W 125°12'9 9.0
2015-Jul-20 21:33N 50°07' W 125°19'5 5.5
2015-Jul-20 20:33N 50°12' W 125°22'2 2.3
2015-Jul-20 19:33N 50°14' W 125°23'2 1.6
2015-Jul-20 18:06N 50°16' W 125°24'3 5.4
2015-Jul-20 17:32N 50°13' W 125°23'4 3.4
2015-Jul-20 16:24N 50°17' W 125°25'42 9.6
2015-Jul-20 12:04N 50°30' W 126°27'15 9.4
2015-Jul-20 10:30N 50°37' W 126°47'9 9.8
2015-Jul-20 09:34N 50°43' W 126°58'10 9.9
2015-Jul-20 08:34N 50°49' W 127°10'1010.2
2015-Jul-20 07:34N 50°55' W 127°24'9 9.5
2015-Jul-20 06:33N 51°00' W 127°36'10 9.7
2015-Jul-20 05:34N 51°07' W 127°47'10 9.4
2015-Jul-20 04:31N 51°16' W 127°53'1110.1
2015-Jul-20 03:25N 51°27' W 127°52'  

Dump ship's entire track history